createdAt,value
2018-09-16T00:02:02.569Z,12.10
2018-09-16T00:04:29.717Z,12.10
2018-09-16T00:06:56.847Z,12.10
2018-09-16T00:09:23.961Z,12.10
2018-09-16T00:11:51.064Z,12.00
2018-09-16T00:14:18.180Z,12.00
2018-09-16T00:16:45.265Z,12.00
2018-09-16T00:19:12.361Z,11.90
2018-09-16T00:21:39.466Z,11.90
2018-09-16T00:24:06.594Z,11.90
2018-09-16T00:26:34.049Z,11.90
2018-09-16T00:29:01.192Z,11.80
2018-09-16T00:31:28.473Z,11.80
2018-09-16T00:33:55.594Z,11.80
2018-09-16T00:36:22.729Z,11.80
2018-09-16T00:38:49.837Z,11.80
2018-09-16T00:41:16.968Z,11.70
2018-09-16T00:43:44.128Z,11.70
2018-09-16T00:46:11.226Z,11.70
2018-09-16T00:48:38.412Z,11.60
2018-09-16T00:51:05.706Z,11.70
2018-09-16T00:53:32.910Z,11.60
2018-09-16T00:56:00.209Z,11.70
2018-09-16T00:58:27.334Z,11.70
2018-09-16T01:00:56.506Z,11.70
2018-09-16T01:03:23.780Z,11.70
2018-09-16T01:05:56.618Z,11.70
2018-09-16T01:08:23.928Z,11.60
2018-09-16T01:10:51.085Z,11.50
2018-09-16T01:13:18.459Z,11.50
2018-09-16T01:15:46.147Z,11.60
2018-09-16T01:18:13.258Z,11.50
2018-09-16T01:20:40.370Z,11.30
2018-09-16T01:23:07.491Z,11.60
2018-09-16T01:25:34.989Z,11.50
2018-09-16T01:28:02.182Z,11.50
2018-09-16T01:30:29.335Z,11.40
2018-09-16T01:32:56.426Z,11.40
2018-09-16T01:35:23.521Z,11.40
2018-09-16T01:37:56.529Z,11.40
2018-09-16T01:40:23.638Z,11.30
2018-09-16T01:42:50.759Z,11.40
2018-09-16T01:45:17.906Z,11.30
2018-09-16T01:47:45.201Z,11.30
2018-09-16T01:50:12.310Z,11.30
2018-09-16T01:52:39.426Z,11.30
2018-09-16T01:55:06.547Z,11.30
2018-09-16T01:57:33.699Z,11.30
2018-09-16T02:00:01.228Z,11.30
2018-09-16T02:02:28.390Z,11.40
2018-09-16T02:04:55.506Z,11.30
2018-09-16T02:07:22.617Z,11.30
2018-09-16T02:09:49.724Z,11.20
2018-09-16T02:12:16.835Z,11.10
2018-09-16T02:14:43.941Z,11.10
2018-09-16T02:17:11.052Z,11.10
2018-09-16T02:19:38.185Z,11.10
2018-09-16T02:22:05.758Z,11.20
2018-09-16T02:24:32.889Z,11.10
2018-09-16T02:27:00.128Z,11.10
2018-09-16T02:29:27.361Z,11.10
2018-09-16T02:31:54.510Z,11.10
2018-09-16T02:34:21.599Z,11.00
2018-09-16T02:36:48.713Z,11.00
2018-09-16T02:39:15.835Z,10.90
2018-09-16T02:41:42.937Z,10.90
2018-09-16T02:44:10.062Z,10.90
2018-09-16T02:46:37.201Z,10.80
2018-09-16T02:49:04.494Z,10.90
2018-09-16T02:51:31.727Z,10.80
2018-09-16T02:53:59.092Z,10.80
2018-09-16T02:56:26.213Z,10.90
2018-09-16T02:58:53.318Z,10.80
2018-09-16T03:01:20.451Z,10.90
2018-09-16T03:03:47.557Z,10.90
2018-09-16T03:06:14.718Z,10.90
2018-09-16T03:08:41.846Z,10.80
2018-09-16T03:11:08.949Z,10.70
2018-09-16T03:13:36.094Z,10.80
2018-09-16T03:16:03.382Z,10.90
2018-09-16T03:18:30.688Z,10.90
2018-09-16T03:20:57.925Z,10.90
2018-09-16T03:23:25.030Z,10.80
2018-09-16T03:25:52.137Z,10.80
2018-09-16T03:28:19.230Z,10.80
2018-09-16T03:30:46.336Z,10.70
2018-09-16T03:33:13.413Z,10.70
2018-09-16T03:35:40.512Z,10.70
2018-09-16T03:38:07.619Z,10.60
2018-09-16T03:40:34.781Z,10.60
2018-09-16T03:43:01.994Z,10.60
2018-09-16T03:45:29.234Z,10.60
2018-09-16T03:47:56.346Z,10.50
2018-09-16T03:50:23.432Z,10.50
2018-09-16T03:52:50.594Z,10.60
2018-09-16T03:55:17.705Z,10.50
2018-09-16T03:57:44.788Z,10.40
2018-09-16T04:00:11.926Z,10.40
2018-09-16T04:02:39.033Z,10.40
2018-09-16T04:05:06.253Z,10.50
2018-09-16T04:07:33.458Z,10.50
2018-09-16T04:10:00.673Z,10.40
2018-09-16T04:12:27.842Z,10.40
2018-09-16T04:14:54.943Z,10.50
2018-09-16T04:17:22.060Z,10.40
2018-09-16T04:19:49.205Z,10.40
2018-09-16T04:22:16.372Z,10.40
2018-09-16T04:24:43.495Z,10.30
2018-09-16T04:27:10.605Z,10.30
2018-09-16T04:29:37.694Z,10.20
2018-09-16T04:32:04.881Z,10.20
2018-09-16T04:34:32.029Z,10.20
2018-09-16T04:36:59.190Z,10.20
2018-09-16T04:39:26.329Z,10.20
2018-09-16T04:41:53.450Z,10.20
2018-09-16T04:44:20.544Z,10.20
2018-09-16T04:46:47.664Z,10.20
2018-09-16T04:49:14.749Z,10.20
2018-09-16T04:51:41.860Z,10.20
2018-09-16T04:54:08.955Z,10.20
2018-09-16T04:56:36.045Z,10.20
2018-09-16T04:59:03.247Z,10.30
2018-09-16T05:01:30.422Z,10.20
2018-09-16T05:03:57.613Z,10.20
2018-09-16T05:06:24.761Z,10.20
2018-09-16T05:08:51.882Z,10.30
2018-09-16T05:11:19.503Z,10.30
2018-09-16T05:13:46.622Z,10.40
2018-09-16T05:16:13.749Z,10.40
2018-09-16T05:18:40.882Z,10.40
2018-09-16T05:21:08.013Z,10.40
2018-09-16T05:23:35.321Z,10.40
2018-09-16T05:26:02.447Z,10.40
2018-09-16T05:28:29.645Z,10.40
2018-09-16T05:30:56.785Z,10.50
2018-09-16T05:33:23.954Z,10.60
2018-09-16T05:35:51.085Z,10.60
2018-09-16T05:38:18.266Z,10.70
2018-09-16T05:40:45.378Z,10.80
2018-09-16T05:43:12.511Z,11.00
2018-09-16T05:45:39.604Z,11.20
2018-09-16T05:48:06.727Z,11.40
2018-09-16T05:50:33.840Z,11.50
2018-09-16T05:53:01.079Z,11.60
2018-09-16T05:55:28.129Z,11.60
2018-09-16T05:57:55.301Z,11.60
2018-09-16T06:00:26.280Z,11.70
2018-09-16T06:02:53.452Z,11.70
2018-09-16T06:05:20.609Z,11.70
2018-09-16T06:07:47.769Z,11.80
2018-09-16T06:10:14.892Z,11.80
2018-09-16T06:12:42.172Z,11.90
2018-09-16T06:15:09.319Z,12.10
2018-09-16T06:17:36.436Z,12.20
2018-09-16T06:20:03.610Z,12.30
2018-09-16T06:22:30.823Z,12.50
2018-09-16T06:24:58.034Z,12.60
2018-09-16T06:27:25.183Z,12.80
2018-09-16T06:29:52.281Z,13.70
2018-09-16T06:32:19.395Z,17.30
2018-09-16T06:34:46.533Z,20.50
2018-09-16T06:37:13.632Z,22.60
2018-09-16T06:39:40.783Z,23.60
2018-09-16T06:42:07.948Z,24.80
2018-09-16T06:44:35.051Z,25.80
2018-09-16T06:47:02.151Z,25.40
2018-09-16T06:49:29.355Z,26.10
2018-09-16T06:51:56.576Z,27.60
2018-09-16T06:54:23.689Z,27.80
2018-09-16T06:56:50.797Z,28.10
2018-09-16T06:59:17.966Z,28.00
2018-09-16T07:01:45.068Z,28.80
2018-09-16T07:04:12.164Z,29.40
2018-09-16T07:06:39.271Z,30.20
2018-09-16T07:09:08.684Z,28.90
2018-09-16T07:11:35.772Z,29.50
2018-09-16T07:14:03.305Z,30.40
2018-09-16T07:16:30.727Z,30.20
2018-09-16T07:18:57.892Z,31.40
2018-09-16T07:21:25.020Z,30.80
2018-09-16T07:23:52.125Z,31.20
2018-09-16T07:26:19.235Z,31.00
2018-09-16T07:28:46.368Z,31.50
2018-09-16T07:31:13.478Z,32.00
2018-09-16T07:33:40.633Z,32.00
2018-09-16T07:36:07.748Z,32.10
2018-09-16T07:38:34.863Z,32.00
2018-09-16T07:41:02.038Z,32.70
2018-09-16T07:43:29.174Z,33.00
2018-09-16T07:45:56.303Z,32.90
2018-09-16T07:48:23.410Z,32.10
2018-09-16T07:50:50.533Z,32.00
2018-09-16T07:53:17.758Z,30.20
2018-09-16T07:55:44.843Z,31.40
2018-09-16T07:58:11.969Z,32.70
2018-09-16T08:00:39.097Z,32.70
2018-09-16T08:03:06.246Z,32.90
2018-09-16T08:05:33.431Z,33.40
2018-09-16T08:08:00.574Z,33.40
2018-09-16T08:10:27.765Z,32.60
2018-09-16T08:12:55.898Z,32.80
2018-09-16T08:15:23.083Z,33.00
2018-09-16T08:17:50.206Z,31.90
2018-09-16T08:20:17.349Z,32.20
2018-09-16T08:22:44.486Z,32.50
2018-09-16T08:25:11.640Z,31.50
2018-09-16T08:27:38.761Z,31.80
2018-09-16T08:30:06.003Z,30.20
2018-09-16T08:32:33.245Z,30.60
2018-09-16T08:35:00.584Z,30.30
2018-09-16T08:37:27.829Z,30.50
2018-09-16T08:39:55.008Z,30.10
2018-09-16T08:42:22.528Z,29.20
2018-09-16T08:44:49.734Z,28.50
2018-09-16T08:47:16.864Z,29.00
2018-09-16T08:49:43.977Z,28.30
2018-09-16T08:52:11.191Z,26.80
2018-09-16T08:54:38.251Z,26.20
2018-09-16T08:57:05.161Z,26.00
2018-09-16T08:59:32.605Z,24.30
2018-09-16T09:01:59.866Z,23.30
2018-09-16T09:04:27.098Z,22.40
2018-09-16T09:06:54.577Z,22.20
2018-09-16T09:09:22.015Z,22.00
2018-09-16T09:11:49.130Z,21.80
2018-09-16T09:14:16.346Z,21.40
2018-09-16T09:16:43.451Z,21.30
2018-09-16T09:19:17.398Z,21.20
2018-09-16T09:21:44.515Z,21.30
2018-09-16T09:24:11.626Z,21.10
2018-09-16T09:26:38.748Z,21.10
2018-09-16T09:29:05.915Z,20.90
2018-09-16T09:31:33.062Z,20.90
2018-09-16T09:34:00.213Z,20.80
2018-09-16T09:36:27.372Z,20.50
2018-09-16T09:38:54.622Z,20.40
2018-09-16T09:41:21.738Z,20.60
2018-09-16T09:43:48.938Z,20.70
2018-09-16T09:46:16.057Z,20.80
2018-09-16T09:48:43.198Z,20.70
2018-09-16T09:51:10.325Z,20.80
2018-09-16T09:53:37.446Z,20.90
2018-09-16T09:56:04.550Z,20.90
2018-09-16T09:58:31.665Z,20.80
2018-09-16T10:00:58.794Z,20.90
2018-09-16T10:03:26.036Z,20.90
2018-09-16T10:05:53.197Z,20.90
2018-09-16T10:08:20.350Z,20.90
2018-09-16T10:10:47.889Z,20.70
2018-09-16T10:13:14.990Z,20.70
2018-09-16T10:15:42.673Z,20.80
2018-09-16T10:18:09.809Z,20.80
2018-09-16T10:20:36.927Z,20.70
2018-09-16T10:23:04.336Z,20.80
2018-09-16T10:25:31.458Z,20.90
2018-09-16T10:27:58.610Z,20.90
2018-09-16T10:30:25.759Z,20.90
2018-09-16T10:32:52.876Z,20.90
2018-09-16T10:35:19.988Z,21.10
2018-09-16T10:37:47.094Z,21.10
2018-09-16T10:40:14.221Z,21.20
2018-09-16T10:42:41.434Z,21.00
2018-09-16T10:45:08.589Z,20.90
2018-09-16T10:47:35.768Z,21.00
2018-09-16T10:50:02.909Z,21.00
2018-09-16T10:52:30.067Z,21.00
2018-09-16T10:54:57.202Z,21.10
2018-09-16T10:57:24.332Z,21.10
2018-09-16T10:59:51.441Z,21.10
2018-09-16T11:02:18.574Z,21.20
2018-09-16T11:04:45.741Z,21.20
2018-09-16T11:07:15.306Z,21.20
2018-09-16T11:09:42.436Z,21.10
2018-09-16T11:12:09.532Z,21.20
2018-09-16T11:14:36.625Z,21.20
2018-09-16T11:17:03.794Z,21.30
2018-09-16T11:19:30.905Z,21.40
2018-09-16T11:21:58.121Z,21.50
2018-09-16T11:24:25.302Z,21.40
2018-09-16T11:26:52.422Z,21.20
2018-09-16T11:29:19.666Z,21.10
2018-09-16T11:31:46.771Z,21.30
2018-09-16T11:34:13.902Z,21.20
2018-09-16T11:36:41.005Z,21.30
2018-09-16T11:39:09.448Z,21.30
2018-09-16T11:41:36.562Z,21.50
2018-09-16T11:44:03.673Z,21.40
2018-09-16T11:46:30.936Z,21.50
2018-09-16T11:48:58.060Z,21.50
2018-09-16T11:51:25.263Z,21.60
2018-09-16T11:53:52.410Z,21.60
2018-09-16T11:56:19.550Z,21.80
2018-09-16T11:58:46.660Z,21.80
2018-09-16T12:01:13.855Z,21.70
2018-09-16T12:03:40.957Z,21.80
2018-09-16T12:06:08.089Z,21.80
2018-09-16T12:08:35.260Z,21.70
2018-09-16T12:11:02.391Z,21.70
2018-09-16T12:13:29.545Z,21.70
2018-09-16T12:15:56.685Z,21.70
2018-09-16T12:18:23.801Z,21.80
2018-09-16T12:20:50.912Z,21.80
2018-09-16T12:23:18.004Z,21.80
2018-09-16T12:25:45.098Z,21.90
2018-09-16T12:28:12.214Z,21.90
2018-09-16T12:30:39.308Z,21.90
2018-09-16T12:33:06.401Z,21.90
2018-09-16T12:35:33.604Z,22.00
2018-09-16T12:38:00.723Z,22.00
2018-09-16T12:40:27.989Z,22.00
2018-09-16T12:42:55.262Z,22.00
2018-09-16T12:45:22.420Z,22.20
2018-09-16T12:47:49.539Z,22.20
2018-09-16T12:50:16.669Z,22.10
2018-09-16T12:52:43.839Z,22.10
2018-09-16T12:55:10.957Z,22.10
2018-09-16T12:57:38.049Z,22.00
2018-09-16T13:00:05.280Z,22.20
2018-09-16T13:02:32.425Z,22.40
2018-09-16T13:04:59.606Z,22.50
2018-09-16T13:07:26.731Z,22.40
2018-09-16T13:09:53.997Z,22.30
2018-09-16T13:12:21.122Z,22.30
2018-09-16T13:14:48.263Z,22.30
2018-09-16T13:17:15.402Z,22.20
2018-09-16T13:19:42.520Z,22.40
2018-09-16T13:22:09.631Z,22.50
2018-09-16T13:24:36.887Z,22.50
2018-09-16T13:27:04.086Z,22.40
2018-09-16T13:29:31.260Z,22.30
2018-09-16T13:31:58.560Z,22.30
2018-09-16T13:34:25.684Z,22.30
2018-09-16T13:36:52.843Z,22.30
2018-09-16T13:39:19.986Z,22.50
2018-09-16T13:41:47.135Z,22.40
2018-09-16T13:44:14.245Z,22.40
2018-09-16T13:46:41.364Z,22.30
2018-09-16T13:49:08.469Z,22.30
2018-09-16T13:51:35.606Z,22.20
2018-09-16T13:54:02.762Z,22.40
2018-09-16T13:56:29.905Z,22.30
2018-09-16T13:58:57.126Z,22.40
2018-09-16T14:01:24.240Z,22.40
2018-09-16T14:03:51.375Z,22.40
2018-09-16T14:06:18.501Z,22.40
2018-09-16T14:08:45.637Z,22.50
2018-09-16T14:11:12.775Z,22.50
2018-09-16T14:13:39.919Z,22.60
2018-09-16T14:16:07.058Z,22.60
2018-09-16T14:18:34.213Z,22.50
2018-09-16T14:21:01.603Z,22.50
2018-09-16T14:23:28.770Z,22.50
2018-09-16T14:26:02.574Z,22.50
2018-09-16T14:28:29.778Z,22.40
2018-09-16T14:30:56.992Z,22.50
2018-09-16T14:33:24.215Z,22.50
2018-09-16T14:35:51.359Z,22.50
2018-09-16T14:38:18.505Z,22.60
2018-09-16T14:40:45.647Z,22.60
2018-09-16T14:43:12.770Z,22.60
2018-09-16T14:45:39.890Z,22.60
2018-09-16T14:48:07.105Z,22.50
2018-09-16T14:50:34.419Z,22.40
2018-09-16T14:53:01.706Z,22.40
2018-09-16T14:55:28.858Z,22.40
2018-09-16T14:57:55.990Z,22.40
2018-09-16T15:00:23.113Z,22.60
2018-09-16T15:02:50.220Z,22.60
2018-09-16T15:05:17.377Z,22.50
2018-09-16T15:07:44.578Z,22.50
2018-09-16T15:10:11.664Z,22.50
2018-09-16T15:12:38.772Z,22.50
2018-09-16T15:15:06.165Z,22.50
2018-09-16T15:17:33.286Z,22.50
2018-09-16T15:20:00.739Z,22.60
2018-09-16T15:22:28.007Z,22.60
2018-09-16T15:24:55.184Z,22.50
2018-09-16T15:27:22.315Z,22.50
2018-09-16T15:29:49.467Z,22.50
2018-09-16T15:32:16.595Z,22.60
2018-09-16T15:34:43.712Z,22.70
2018-09-16T15:37:10.835Z,22.70
2018-09-16T15:39:37.964Z,22.60
2018-09-16T15:42:05.114Z,22.50
2018-09-16T15:44:32.426Z,22.60
2018-09-16T15:46:59.590Z,22.50
2018-09-16T15:49:26.786Z,22.60
2018-09-16T15:51:53.958Z,22.60
2018-09-16T15:54:21.128Z,22.70
2018-09-16T15:56:48.249Z,22.50
2018-09-16T15:59:15.421Z,22.40
2018-09-16T16:01:42.555Z,22.50
2018-09-16T16:04:09.743Z,22.50
2018-09-16T16:06:36.858Z,22.50
2018-09-16T16:09:06.822Z,22.50
2018-09-16T16:11:34.081Z,22.40
2018-09-16T16:14:01.365Z,22.20
2018-09-16T16:16:28.858Z,22.00
2018-09-16T16:18:56.040Z,21.90
2018-09-16T16:21:23.154Z,21.80
2018-09-16T16:23:50.506Z,21.70
2018-09-16T16:26:17.618Z,21.80
2018-09-16T16:28:44.728Z,21.80
2018-09-16T16:31:11.817Z,21.70
2018-09-16T16:33:39.429Z,21.60
2018-09-16T16:36:06.646Z,21.50
2018-09-16T16:38:33.749Z,21.50
2018-09-16T16:41:01.023Z,21.70
2018-09-16T16:43:28.283Z,21.60
2018-09-16T16:45:56.143Z,21.50
2018-09-16T16:48:23.250Z,21.50
2018-09-16T16:50:50.356Z,21.50
2018-09-16T16:53:17.445Z,21.30
2018-09-16T16:55:44.551Z,21.20
2018-09-16T16:58:11.692Z,21.20
2018-09-16T17:00:38.825Z,21.10
2018-09-16T17:03:05.946Z,21.00
2018-09-16T17:05:33.340Z,20.90
2018-09-16T17:08:00.590Z,20.70
2018-09-16T17:10:27.790Z,20.60
2018-09-16T17:12:55.002Z,20.50
2018-09-16T17:15:22.185Z,20.40
2018-09-16T17:17:49.271Z,20.30
2018-09-16T17:20:16.362Z,20.00
2018-09-16T17:22:43.474Z,19.90
2018-09-16T17:25:10.571Z,19.70
2018-09-16T17:27:37.695Z,19.50
2018-09-16T17:30:04.805Z,19.40
2018-09-16T17:32:31.930Z,19.30
2018-09-16T17:34:59.079Z,19.30
2018-09-16T17:37:27.091Z,19.40
2018-09-16T17:39:54.226Z,19.20
2018-09-16T17:42:21.422Z,19.10
2018-09-16T17:44:48.723Z,19.10
2018-09-16T17:47:15.975Z,18.90
2018-09-16T17:49:43.276Z,18.70
2018-09-16T17:52:10.514Z,18.50
2018-09-16T17:54:37.760Z,18.40
2018-09-16T17:57:05.173Z,18.30
2018-09-16T17:59:32.436Z,18.20
2018-09-16T18:01:59.867Z,18.10
2018-09-16T18:04:27.352Z,18.00
2018-09-16T18:06:54.571Z,17.90
2018-09-16T18:09:21.690Z,17.70
2018-09-16T18:11:48.987Z,17.70
2018-09-16T18:14:16.154Z,17.60
2018-09-16T18:16:43.424Z,17.60
2018-09-16T18:19:10.666Z,17.50
2018-09-16T18:21:37.865Z,17.40
2018-09-16T18:24:05.124Z,17.40
2018-09-16T18:26:32.288Z,17.40
2018-09-16T18:28:59.511Z,17.40
2018-09-16T18:31:26.778Z,17.50
2018-09-16T18:33:54.015Z,17.40
2018-09-16T18:36:21.261Z,17.40
2018-09-16T18:38:48.475Z,17.40
2018-09-16T18:41:15.708Z,17.30
2018-09-16T18:43:42.966Z,17.20
2018-09-16T18:46:10.168Z,17.00
2018-09-16T18:48:37.369Z,17.00
2018-09-16T18:51:04.561Z,17.00
2018-09-16T18:53:31.923Z,17.00
2018-09-16T18:55:59.200Z,17.00
2018-09-16T18:58:26.503Z,16.90
2018-09-16T19:00:53.722Z,16.80
2018-09-16T19:03:21.082Z,16.60
2018-09-16T19:05:48.352Z,16.60
2018-09-16T19:08:15.516Z,16.50
2018-09-16T19:10:42.723Z,16.50
2018-09-16T19:13:09.980Z,16.40
2018-09-16T19:15:37.163Z,16.40
2018-09-16T19:18:04.434Z,16.40
2018-09-16T19:20:31.697Z,16.40
2018-09-16T19:22:58.926Z,16.30
2018-09-16T19:25:26.625Z,16.20
2018-09-16T19:27:53.801Z,16.20
2018-09-16T19:30:21.093Z,16.20
2018-09-16T19:32:48.281Z,16.20
2018-09-16T19:35:15.524Z,16.20
2018-09-16T19:37:42.707Z,16.20
2018-09-16T19:40:10.064Z,16.10
2018-09-16T19:42:37.169Z,16.10
2018-09-16T19:45:04.831Z,16.10
2018-09-16T19:47:32.190Z,16.10
2018-09-16T19:49:59.611Z,16.30
2018-09-16T19:52:26.984Z,16.30
2018-09-16T19:54:54.727Z,16.20
2018-09-16T19:57:21.952Z,16.10
2018-09-16T19:59:49.214Z,16.10
2018-09-16T20:02:16.365Z,16.00
2018-09-16T20:04:43.572Z,16.00
2018-09-16T20:07:10.793Z,16.00
2018-09-16T20:09:38.051Z,16.10
2018-09-16T20:12:05.313Z,16.10
2018-09-16T20:14:32.566Z,16.30
2018-09-16T20:16:59.835Z,16.40
2018-09-16T20:19:27.171Z,16.30
2018-09-16T20:21:54.404Z,16.10
2018-09-16T20:24:21.597Z,16.00
2018-09-16T20:26:48.786Z,16.00
2018-09-16T20:29:15.949Z,15.80
2018-09-16T20:31:43.158Z,15.80
2018-09-16T20:34:10.998Z,15.80
2018-09-16T20:36:38.182Z,15.70
2018-09-16T20:39:07.073Z,15.70
2018-09-16T20:41:34.270Z,15.70
2018-09-16T20:44:01.605Z,15.80
2018-09-16T20:46:28.934Z,15.70
2018-09-16T20:48:56.315Z,15.70
2018-09-16T20:51:23.563Z,15.70
2018-09-16T20:53:50.910Z,15.70
2018-09-16T20:56:18.142Z,15.60
2018-09-16T20:58:45.376Z,15.70
2018-09-16T21:01:12.628Z,15.70
2018-09-16T21:03:39.919Z,15.70
2018-09-16T21:06:07.138Z,15.60
2018-09-16T21:08:34.322Z,15.60
2018-09-16T21:11:01.615Z,15.60
2018-09-16T21:13:28.957Z,15.50
2018-09-16T21:15:56.282Z,15.30
2018-09-16T21:18:23.539Z,15.20
2018-09-16T21:20:50.730Z,15.00
2018-09-16T21:23:17.995Z,15.00
2018-09-16T21:25:45.439Z,15.10
2018-09-16T21:28:12.831Z,15.20
2018-09-16T21:30:40.045Z,15.30
2018-09-16T21:33:07.327Z,15.30
2018-09-16T21:35:34.535Z,15.40
2018-09-16T21:38:01.803Z,15.30
2018-09-16T21:40:29.062Z,15.10
2018-09-16T21:42:56.454Z,15.10
2018-09-16T21:45:23.656Z,15.10
2018-09-16T21:47:50.968Z,15.10
2018-09-16T21:50:18.280Z,15.20
2018-09-16T21:52:45.530Z,15.10
2018-09-16T21:55:12.750Z,15.10
2018-09-16T21:57:40.046Z,15.10
2018-09-16T22:00:07.640Z,14.90
2018-09-16T22:02:35.398Z,14.80
2018-09-16T22:05:02.763Z,14.80
2018-09-16T22:07:29.939Z,14.70
2018-09-16T22:09:57.412Z,14.70
2018-09-16T22:12:25.306Z,14.60
2018-09-16T22:14:52.599Z,14.50
2018-09-16T22:17:19.819Z,14.40
2018-09-16T22:19:47.031Z,14.40
2018-09-16T22:22:14.251Z,14.30
2018-09-16T22:24:41.481Z,14.30
2018-09-16T22:27:08.710Z,14.40
2018-09-16T22:29:36.306Z,14.50
2018-09-16T22:32:03.446Z,14.40
2018-09-16T22:34:30.575Z,14.30
2018-09-16T22:36:57.749Z,14.20
2018-09-16T22:39:25.121Z,14.10
2018-09-16T22:41:52.236Z,14.10
2018-09-16T22:44:19.349Z,14.10
2018-09-16T22:46:46.484Z,14.10
2018-09-16T22:49:13.622Z,14.20
2018-09-16T22:51:40.731Z,14.20
2018-09-16T22:54:07.829Z,14.10
2018-09-16T22:56:34.997Z,14.10
2018-09-16T22:59:02.224Z,14.00
2018-09-16T23:01:29.401Z,14.00
2018-09-16T23:03:56.596Z,13.90
2018-09-16T23:06:23.727Z,13.80
2018-09-16T23:08:55.460Z,13.80
2018-09-16T23:11:22.814Z,13.90
2018-09-16T23:13:50.145Z,14.00
2018-09-16T23:16:17.308Z,14.10
2018-09-16T23:18:44.453Z,14.10
2018-09-16T23:21:11.598Z,14.00
2018-09-16T23:23:38.721Z,13.90
2018-09-16T23:26:06.193Z,13.80
2018-09-16T23:28:33.344Z,13.80
2018-09-16T23:31:00.632Z,13.70
2018-09-16T23:33:27.814Z,13.70
2018-09-16T23:35:54.936Z,13.80
2018-09-16T23:38:22.057Z,13.60
2018-09-16T23:40:49.176Z,13.60
2018-09-16T23:43:16.277Z,13.50
2018-09-16T23:45:43.426Z,13.50
2018-09-16T23:48:10.530Z,13.50
2018-09-16T23:50:37.625Z,13.50
2018-09-16T23:53:04.920Z,13.40
2018-09-16T23:55:32.039Z,13.40
2018-09-16T23:57:59.216Z,13.30
